Time;durP1;ratioP1;P1;durP2;ratioP2;P2;SDS_P1;SDS_P2;PMS_P1;PMS_P2;Temp;Humidity;BMP_temperature;BMP_pressure;BME280_temperature;BME280_humidity;BME280_pressure;Samples;Min_cycle;Max_cycle;Signal;HPM_P1;HPM_P2
2024/01/03 06:00:34;;;;;;;4.22;0.80;;;9.00;83.10;;;;;;4777678;23;20054;-76
2024/01/03 06:02:35;;;;;;;3.97;0.90;;;9.00;83.20;;;;;;4071111;29;20059;-76
2024/01/03 06:04:37;;;;;;;2.10;0.63;;;9.00;83.30;;;;;;4070969;29;20091;-76
2024/01/03 06:06:39;;;;;;;4.85;1.00;;;9.00;83.50;;;;;;4070553;29;20134;-76
2024/01/03 06:08:41;;;;;;;2.05;0.68;;;9.00;83.40;;;;;;4070816;29;20096;-76
2024/01/03 06:10:42;;;;;;;3.45;0.70;;;9.00;83.50;;;;;;4070799;29;20056;-78
2024/01/03 06:12:44;;;;;;;3.42;1.10;;;9.10;83.60;;;;;;4070799;29;20091;-76
2024/01/03 06:14:46;;;;;;;2.50;0.70;;;9.00;83.50;;;;;;4070759;29;20096;-75
2024/01/03 06:16:49;;;;;;;3.63;0.70;;;9.10;83.50;;;;;;4070849;29;20052;-75
2024/01/03 06:18:51;;;;;;;4.32;1.10;;;9.10;83.50;;;;;;4070730;29;20181;-76
2024/01/03 06:20:52;;;;;;;4.35;0.90;;;9.10;83.70;;;;;;4070934;29;20123;-76
2024/01/03 06:22:54;;;;;;;3.17;0.70;;;9.10;83.80;;;;;;4070764;29;20052;-77
2024/01/03 06:24:56;;;;;;;5.32;1.17;;;9.10;83.80;;;;;;4070651;29;20458;-77
2024/01/03 06:26:58;;;;;;;2.35;0.73;;;9.10;84.00;;;;;;4070563;29;20044;-76
2024/01/03 06:28:59;;;;;;;3.50;0.50;;;9.10;84.20;;;;;;4070584;29;20044;-76
2024/01/03 06:31:01;;;;;;;1.92;0.55;;;9.10;84.30;;;;;;4070495;29;20457;-77
2024/01/03 06:33:05;;;;;;;1.83;0.50;;;9.10;84.30;;;;;;4070536;29;20052;-77
2024/01/03 06:35:08;;;;;;;2.00;0.60;;;9.10;84.40;;;;;;4070319;29;20536;-76
2024/01/03 06:37:09;;;;;;;1.02;0.50;;;9.10;84.40;;;;;;4070470;29;20055;-76
2024/01/03 06:39:11;;;;;;;2.30;0.55;;;9.10;84.40;;;;;;4070971;29;20051;-77
2024/01/03 06:41:13;;;;;;;6.15;0.80;;;9.10;84.40;;;;;;4070612;29;20052;-76
2024/01/03 06:43:14;;;;;;;1.67;0.50;;;9.10;84.60;;;;;;4070623;29;20067;-76
2024/01/03 06:45:16;;;;;;;2.55;0.65;;;9.10;84.70;;;;;;4070316;29;20048;-77
2024/01/03 06:47:18;;;;;;;2.38;0.60;;;9.10;84.80;;;;;;4070350;29;20056;-77
2024/01/03 06:49:21;;;;;;;1.90;0.63;;;9.10;84.90;;;;;;4070408;29;20478;-77
2024/01/03 06:51:23;;;;;;;3.65;0.43;;;9.10;85.10;;;;;;4070326;29;20083;-76
2024/01/03 06:53:24;;;;;;;6.70;0.77;;;9.10;85.10;;;;;;4070395;29;20091;-78
2024/01/03 06:55:26;;;;;;;1.67;0.60;;;9.10;84.90;;;;;;4070085;29;20067;-78
2024/01/03 06:57:28;;;;;;;2.33;0.60;;;9.10;84.60;;;;;;4069846;29;20107;-78
2024/01/03 06:59:34;;;;;;;2.45;0.60;;;9.10;84.40;;;;;;4070266;29;20048;-78
2024/01/03 07:01:37;;;;;;;2.65;0.80;;;9.10;84.30;;;;;;4069979;29;20056;-77
2024/01/03 07:03:39;;;;;;;2.60;0.70;;;9.10;84.00;;;;;;4070064;29;20060;-78
2024/01/03 07:05:41;;;;;;;1.75;0.60;;;9.10;83.50;;;;;;4070088;29;20048;-78
2024/01/03 07:07:43;;;;;;;2.70;0.70;;;9.10;83.30;;;;;;4069878;29;20048;-77
2024/01/03 07:09:45;;;;;;;3.00;0.63;;;9.10;83.10;;;;;;4070214;29;20132;-78
2024/01/03 07:11:47;;;;;;;2.70;0.68;;;9.20;83.00;;;;;;4069780;29;20393;-77
2024/01/03 07:13:48;;;;;;;2.90;0.70;;;9.20;82.80;;;;;;4070075;29;20052;-77
2024/01/03 07:15:50;;;;;;;4.03;0.55;;;9.20;82.70;;;;;;4069858;29;20044;-77
2024/01/03 07:17:52;;;;;;;2.83;0.60;;;9.20;82.60;;;;;;4069807;29;20059;-77
2024/01/03 07:19:54;;;;;;;3.53;0.75;;;9.20;82.60;;;;;;4069661;29;20119;-77
2024/01/03 07:21:57;;;;;;;3.78;0.80;;;9.20;82.40;;;;;;4069742;29;20116;-77
2024/01/03 07:23:59;;;;;;;4.38;0.90;;;9.20;82.30;;;;;;4069705;29;20107;-78
2024/01/03 07:26:00;;;;;;;3.88;0.60;;;9.20;82.30;;;;;;4069424;29;20052;-78
2024/01/03 07:28:02;;;;;;;4.75;0.77;;;9.20;82.20;;;;;;4069609;29;20044;-77
2024/01/03 07:30:05;;;;;;;2.70;0.73;;;9.30;82.30;;;;;;4069486;29;20099;-78
2024/01/03 07:32:07;;;;;;;3.88;0.77;;;9.30;82.30;;;;;;4069408;29;20458;-77
2024/01/03 07:34:10;;;;;;;4.15;0.70;;;9.30;82.30;;;;;;4069567;29;20052;-77
2024/01/03 07:36:12;;;;;;;2.90;0.70;;;9.30;82.10;;;;;;4069400;29;20079;-77
2024/01/03 07:38:15;;;;;;;3.08;0.73;;;9.40;82.20;;;;;;4069514;29;20457;-77
2024/01/03 07:40:17;;;;;;;3.03;0.52;;;9.40;81.90;;;;;;4069328;29;20048;-77
2024/01/03 07:42:19;;;;;;;2.47;0.80;;;9.40;81.90;;;;;;4069331;29;20184;-77
2024/01/03 07:44:21;;;;;;;3.88;0.95;;;9.40;81.80;;;;;;4069285;29;20078;-77
2024/01/03 07:46:23;;;;;;;2.20;0.65;;;9.40;81.60;;;;;;4069310;29;20056;-77
2024/01/03 07:48:25;;;;;;;2.50;0.80;;;9.40;81.60;;;;;;4069456;29;20072;-77
2024/01/03 07:50:27;;;;;;;3.67;0.95;;;9.50;81.40;;;;;;4069147;29;20048;-77
2024/01/03 07:52:28;;;;;;;3.30;0.80;;;9.50;81.10;;;;;;4069296;29;20048;-78
2024/01/03 07:54:32;;;;;;;2.65;0.90;;;9.50;81.20;;;;;;4069039;29;20103;-77
2024/01/03 07:56:34;;;;;;;3.30;1.00;;;9.50;81.20;;;;;;4069082;29;20056;-77
2024/01/03 07:58:36;;;;;;;6.07;1.90;;;9.50;81.40;;;;;;4069307;29;20128;-76
2024/01/03 08:00:37;;;;;;;3.95;0.73;;;9.50;81.50;;;;;;4069057;29;20115;-77
2024/01/03 08:02:39;;;;;;;3.55;0.60;;;9.50;81.50;;;;;;4069104;29;20080;-77
2024/01/03 08:04:40;;;;;;;2.78;0.73;;;9.50;81.30;;;;;;4068950;29;20103;-77
2024/01/03 08:06:42;;;;;;;2.53;0.70;;;9.60;81.10;;;;;;4069123;29;20143;-77
2024/01/03 08:08:44;;;;;;;2.50;0.50;;;9.60;80.90;;;;;;4069093;29;20044;-78
2024/01/03 08:10:47;;;;;;;2.60;0.63;;;9.70;80.80;;;;;;4068471;29;20055;-77
2024/01/03 08:12:49;;;;;;;2.28;0.63;;;9.70;80.40;;;;;;4069089;29;20044;-78
2024/01/03 08:14:51;;;;;;;3.65;0.80;;;9.70;80.20;;;;;;4069245;29;20108;-78
2024/01/03 08:16:52;;;;;;;3.92;0.80;;;9.70;80.10;;;;;;4069162;29;20052;-77
2024/01/03 08:18:54;;;;;;;2.60;0.60;;;9.70;80.00;;;;;;4069200;29;20457;-77
2024/01/03 08:20:55;;;;;;;5.30;0.60;;;9.80;79.70;;;;;;4069118;29;20048;-77
2024/01/03 08:22:57;;;;;;;2.42;0.60;;;9.80;79.30;;;;;;4069208;29;20095;-77
2024/01/03 08:24:59;;;;;;;3.53;0.75;;;9.80;79.40;;;;;;4069223;29;20104;-77
2024/01/03 08:27:02;;;;;;;2.63;0.70;;;9.90;79.10;;;;;;4069039;29;20052;-78
2024/01/03 08:29:04;;;;;;;4.00;0.73;;;9.90;79.00;;;;;;4069053;29;20077;-77
2024/01/03 08:31:06;;;;;;;4.05;0.90;;;9.90;78.90;;;;;;4068983;29;20103;-78
2024/01/03 08:33:07;;;;;;;2.95;0.90;;;10.00;78.80;;;;;;4068700;29;20095;-77
2024/01/03 08:35:10;;;;;;;3.83;0.80;;;10.00;78.80;;;;;;4068964;29;20405;-77
2024/01/03 08:37:11;;;;;;;3.47;1.23;;;10.00;78.80;;;;;;4068649;29;20052;-78
2024/01/03 08:39:13;;;;;;;5.07;0.85;;;10.00;78.90;;;;;;4069231;29;20052;-77
2024/01/03 08:41:16;;;;;;;4.40;0.93;;;10.00;78.80;;;;;;4069029;29;20048;-78
2024/01/03 08:43:19;;;;;;;5.32;0.88;;;10.00;78.60;;;;;;4068542;29;20048;-78
2024/01/03 08:45:21;;;;;;;3.65;0.70;;;10.10;78.60;;;;;;4068876;29;20470;-77
2024/01/03 08:47:23;;;;;;;4.65;0.90;;;10.10;78.30;;;;;;4068773;29;20055;-77
2024/01/03 08:49:25;;;;;;;5.55;0.90;;;10.10;78.50;;;;;;4068696;29;20052;-77
2024/01/03 08:51:27;;;;;;;3.80;0.85;;;10.10;78.70;;;;;;4068638;29;20056;-77
2024/01/03 08:53:28;;;;;;;4.60;1.08;;;10.10;78.80;;;;;;4068466;29;20100;-77
2024/01/03 08:55:30;;;;;;;4.63;1.10;;;10.10;78.60;;;;;;4068686;29;20044;-77
2024/01/03 08:57:32;;;;;;;9.15;3.88;;;10.10;78.50;;;;;;4068397;29;20059;-77
2024/01/03 08:59:36;;;;;;;4.18;0.90;;;10.10;78.60;;;;;;4068571;29;20051;-76
2024/01/03 09:01:38;;;;;;;5.60;1.55;;;10.10;78.60;;;;;;4068823;29;20055;-78
2024/01/03 09:03:39;;;;;;;4.72;0.98;;;10.20;79.10;;;;;;4068446;29;20072;-78
2024/01/03 09:05:42;;;;;;;5.32;1.35;;;10.20;79.50;;;;;;4068741;29;20044;-78
2024/01/03 09:07:44;;;;;;;4.70;0.80;;;10.10;80.20;;;;;;4068516;29;20048;-78
2024/01/03 09:09:46;;;;;;;3.83;0.88;;;10.10;80.90;;;;;;4068732;29;20115;-78
2024/01/03 09:11:49;;;;;;;3.55;1.00;;;10.10;81.40;;;;;;4068989;29;20048;-78
2024/01/03 09:13:51;;;;;;;5.65;1.20;;;10.00;81.80;;;;;;4068641;29;20119;-78
2024/01/03 09:15:54;;;;;;;6.68;1.40;;;10.00;82.60;;;;;;4068714;29;20048;-78
2024/01/03 09:17:56;;;;;;;6.63;0.90;;;10.00;83.30;;;;;;4069016;29;20108;-78
2024/01/03 09:19:57;;;;;;;5.35;1.15;;;10.00;82.80;;;;;;4068571;29;20544;-78
2024/01/03 09:22:01;;;;;;;4.57;1.20;;;10.00;82.90;;;;;;4070987;29;20048;-78
2024/01/03 09:24:05;;;;;;;7.50;1.10;;;10.00;82.60;;;;;;4071478;29;20052;-78
2024/01/03 09:26:07;;;;;;;6.95;1.08;;;10.00;82.30;;;;;;4071579;29;20059;-78
2024/01/03 09:28:10;;;;;;;3.92;1.23;;;10.10;82.50;;;;;;4071442;29;20083;-78
2024/01/03 09:30:13;;;;;;;7.28;1.13;;;10.10;82.60;;;;;;4071569;29;20549;-78
2024/01/03 09:32:18;;;;;;;5.53;1.00;;;10.10;82.50;;;;;;4071726;29;20052;-78
2024/01/03 09:34:20;;;;;;;3.95;1.02;;;10.10;82.90;;;;;;4071342;29;20052;-78
2024/01/03 09:36:22;;;;;;;4.57;1.40;;;10.10;82.80;;;;;;4071262;29;20409;-78
2024/01/03 09:38:24;;;;;;;4.15;1.00;;;10.10;82.70;;;;;;4071330;29;20052;-78
2024/01/03 09:40:26;;;;;;;4.20;0.82;;;10.10;82.50;;;;;;4071242;29;20052;-77
2024/01/03 09:42:29;;;;;;;4.72;1.20;;;10.20;82.60;;;;;;4071352;29;20052;-78
2024/01/03 09:44:31;;;;;;;5.10;0.93;;;10.10;82.50;;;;;;4072336;29;20052;-77
2024/01/03 09:46:32;;;;;;;5.40;1.00;;;10.20;82.70;;;;;;4071305;29;20060;-77
2024/01/03 09:48:35;;;;;;;5.18;1.10;;;10.20;82.40;;;;;;4071180;29;20054;-77
2024/01/03 09:50:39;;;;;;;3.60;1.20;;;10.20;82.10;;;;;;4068803;29;20481;-77
2024/01/03 09:52:45;;;;;;;5.53;1.23;;;10.20;82.20;;;;;;4069833;29;20107;-77
2024/01/03 09:54:49;;;;;;;3.92;0.90;;;10.30;82.10;;;;;;4069373;29;20091;-77
2024/01/03 09:56:52;;;;;;;8.82;2.28;;;10.30;81.60;;;;;;4069694;29;20052;-77
2024/01/03 09:58:54;;;;;;;6.38;1.15;;;10.30;81.10;;;;;;4068868;29;20135;-76
2024/01/03 10:00:56;;;;;;;7.07;1.30;;;10.30;81.10;;;;;;4068492;29;20052;-77
2024/01/03 10:03:02;;;;;;;5.30;1.17;;;10.30;80.80;;;;;;4068897;29;20064;-77
2024/01/03 10:05:06;;;;;;;4.35;1.02;;;10.30;80.30;;;;;;4067096;29;20048;-77
2024/01/03 10:07:08;;;;;;;5.60;1.23;;;10.30;80.60;;;;;;4068968;29;20044;-78
2024/01/03 10:09:14;;;;;;;6.80;1.10;;;10.30;81.00;;;;;;4068649;29;20055;-78
2024/01/03 10:11:19;;;;;;;;;;;10.20;81.40;;;;;;4069151;29;20051;-78
2024/01/03 10:13:23;;;;;;;;;;;10.20;81.70;;;;;;4069325;29;20336;-78
2024/01/03 10:15:33;;;;;;;6.57;1.17;;;10.20;82.20;;;;;;4066923;29;19990;-77
2024/01/03 10:17:35;;;;;;;6.38;1.00;;;10.20;82.70;;;;;;4069131;29;20462;-78
2024/01/03 10:19:37;;;;;;;7.03;1.02;;;10.20;82.40;;;;;;4068655;29;20060;-78
2024/01/03 10:21:49;;;;;;;4.65;1.10;;;10.10;81.90;;;;;;4068697;29;20454;-77
2024/01/03 10:24:01;;;;;;;4.80;1.23;;;10.10;81.90;;;;;;4068640;29;20048;-77
2024/01/03 10:26:03;;;;;;;3.47;1.00;;;10.10;81.90;;;;;;4064922;29;20107;-78
2024/01/03 10:28:05;;;;;;;6.07;1.00;;;10.10;81.90;;;;;;4068167;29;20064;-78
2024/01/03 10:30:15;;;;;;;5.47;1.00;;;10.10;81.30;;;;;;4068020;29;20056;-77
2024/01/03 10:32:17;;;;;;;6.57;1.10;;;10.10;80.80;;;;;;4067587;29;20388;-77
2024/01/03 10:34:23;;;;;;;6.25;1.20;;;10.10;80.40;;;;;;4067711;29;20056;-78
2024/01/03 10:36:24;;;;;;;;;;;10.20;80.30;;;;;;4068455;29;20108;-76
2024/01/03 10:38:29;;;;;;;5.78;1.30;;;10.20;79.60;;;;;;4067809;29;19923;-77
2024/01/03 10:40:32;;;;;;;4.72;1.45;;;10.20;79.40;;;;;;4068356;29;20056;-77
2024/01/03 10:42:35;;;;;;;5.93;1.00;;;10.30;79.40;;;;;;4067923;29;20083;-77
2024/01/03 10:44:37;;;;;;;6.38;1.10;;;10.30;78.80;;;;;;4068115;29;20056;-77
2024/01/03 10:46:41;;;;;;;4.88;1.10;;;10.30;78.80;;;;;;4067652;29;20465;-76
2024/01/03 10:48:43;;;;;;;6.07;1.02;;;10.40;78.40;;;;;;4067834;29;20474;-77
2024/01/03 10:50:46;;;;;;;3.65;0.80;;;10.40;77.50;;;;;;4067290;29;20099;-76
2024/01/03 10:52:48;;;;;;;6.55;1.15;;;10.50;77.30;;;;;;4067671;29;20055;-77
2024/01/03 10:54:57;;;;;;;5.32;1.27;;;10.50;76.80;;;;;;4067941;29;20052;-76
2024/01/03 10:56:59;;;;;;;4.43;1.00;;;10.60;76.60;;;;;;4068090;29;20383;-77
2024/01/03 10:59:01;;;;;;;5.53;1.25;;;10.60;76.60;;;;;;4068133;29;20056;-77
2024/01/03 11:01:13;;;;;;;5.18;1.15;;;10.70;76.50;;;;;;4067055;29;20064;-77
2024/01/03 11:03:25;;;;;;;4.50;0.93;;;10.70;75.90;;;;;;4067631;29;20106;-77
2024/01/03 11:05:39;;;;;;;3.92;0.80;;;10.80;75.60;;;;;;4067284;29;20060;-77
2024/01/03 11:07:47;;;;;;;4.47;0.98;;;10.90;75.30;;;;;;4067557;29;20048;-77
2024/01/03 11:09:50;;;;;;;3.78;0.82;;;10.90;75.20;;;;;;4066969;29;20052;-77
2024/01/03 11:12:07;;;;;;;4.85;0.98;;;11.00;74.90;;;;;;4067608;29;20056;-77
2024/01/03 11:14:23;;;;;;;4.07;0.95;;;11.10;74.00;;;;;;4065308;29;20120;-77
2024/01/03 11:16:36;;;;;;;3.15;0.90;;;11.10;73.70;;;;;;4066642;29;20191;-77
2024/01/03 11:18:54;;;;;;;2.72;0.70;;;11.00;73.80;;;;;;4067103;29;20075;-77
2024/01/03 11:20:56;;;;;;;5.07;1.13;;;11.00;73.60;;;;;;4067055;29;20486;-77
2024/01/03 11:23:01;;;;;;;3.55;0.88;;;11.00;76.00;;;;;;4067032;29;20496;-77
2024/01/03 11:25:04;;;;;;;3.60;0.60;;;10.70;78.20;;;;;;4066979;29;20138;-76
2024/01/03 11:27:05;;;;;;;1.80;0.50;;;10.60;79.30;;;;;;4066375;29;21238;-77
2024/01/03 11:29:07;;;;;;;3.75;0.80;;;10.60;80.10;;;;;;4066883;29;20122;-77
2024/01/03 11:31:09;;;;;;;4.57;0.80;;;10.60;79.70;;;;;;4067159;29;20068;-77
2024/01/03 11:33:24;;;;;;;3.03;0.68;;;10.50;79.30;;;;;;4067108;29;20056;-78
2024/01/03 11:35:47;;;;;;;3.38;0.63;;;10.60;78.80;;;;;;4066781;29;20060;-77
2024/01/03 11:37:52;;;;;;;3.45;0.70;;;10.70;78.00;;;;;;4066099;29;20064;-77
2024/01/03 11:39:55;;;;;;;5.68;1.20;;;10.70;78.10;;;;;;4066730;29;20056;-78
2024/01/03 11:41:58;;;;;;;4.65;0.73;;;10.80;76.50;;;;;;4066603;29;20462;-78
2024/01/03 11:44:00;;;;;;;5.13;0.98;;;10.90;75.80;;;;;;4067038;29;20056;-78
2024/01/03 11:46:10;;;;;;;4.25;1.00;;;11.00;75.00;;;;;;4066742;29;20390;-77
2024/01/03 11:48:12;;;;;;;2.83;0.60;;;11.10;74.10;;;;;;4066536;29;20112;-78
2024/01/03 11:50:15;;;;;;;3.00;0.70;;;11.30;74.20;;;;;;4066653;29;20080;-78
2024/01/03 11:52:17;;;;;;;4.72;1.00;;;11.30;72.60;;;;;;4066801;29;20138;-77
2024/01/03 11:54:19;;;;;;;3.55;0.80;;;11.40;72.30;;;;;;4066741;29;20078;-78
2024/01/03 11:56:32;;;;;;;3.15;0.80;;;11.40;71.80;;;;;;4066546;29;20052;-78
2024/01/03 11:58:36;;;;;;;4.93;0.88;;;11.40;71.70;;;;;;4066161;29;20052;-78
2024/01/03 12:00:36;;;;;;;5.22;0.90;;;11.40;69.70;;;;;;4066182;29;20115;-77
2024/01/03 12:02:49;;;;;;;6.63;0.60;;;11.40;70.10;;;;;;4066707;29;20458;-78
2024/01/03 12:04:59;;;;;;;3.53;0.80;;;11.40;69.90;;;;;;4067216;29;20568;-78
2024/01/03 12:07:01;;;;;;;3.90;0.90;;;11.40;69.60;;;;;;4066229;29;20060;-78
2024/01/03 12:09:04;;;;;;;3.25;0.80;;;11.40;69.70;;;;;;4066314;29;20055;-79
2024/01/03 12:11:06;;;;;;;3.08;0.52;;;11.50;69.00;;;;;;4067326;29;20154;-79
2024/01/03 12:13:08;;;;;;;2.22;0.47;;;11.60;68.20;;;;;;4067453;29;20056;-80
2024/01/03 12:15:23;;;;;;;4.32;0.52;;;11.60;68.40;;;;;;4064501;29;20208;-80
2024/01/03 12:17:30;;;;;;;4.07;0.80;;;11.60;68.80;;;;;;4066285;29;20063;-80
2024/01/03 12:19:32;;;;;;;2.92;0.70;;;11.50;69.00;;;;;;4067041;29;20557;-79
2024/01/03 12:21:34;;;;;;;3.97;0.65;;;11.40;70.00;;;;;;4066105;29;20052;-80
2024/01/03 12:23:36;;;;;;;2.97;0.57;;;11.30;71.30;;;;;;4066500;29;20107;-80
2024/01/03 12:25:38;;;;;;;3.70;0.93;;;11.30;71.80;;;;;;4065937;29;20048;-79
2024/01/03 12:27:39;;;;;;;3.95;1.23;;;11.30;72.40;;;;;;4066222;29;20112;-79
2024/01/03 12:29:41;;;;;;;3.30;0.80;;;11.20;73.20;;;;;;4066354;29;20040;-80
2024/01/03 12:31:43;;;;;;;3.03;0.80;;;11.20;74.30;;;;;;4066178;29;20099;-81
2024/01/03 12:33:45;;;;;;;2.25;0.50;;;11.10;75.20;;;;;;4066492;29;20052;-81
2024/01/03 12:35:48;;;;;;;3.75;0.85;;;11.00;76.00;;;;;;4058777;29;20131;-78
2024/01/03 12:37:49;;;;;;;3.05;0.70;;;11.00;76.90;;;;;;4058384;29;20079;-78
2024/01/03 12:39:51;;;;;;;1.92;0.70;;;11.20;76.90;;;;;;4066208;29;20055;-77
2024/01/03 12:41:52;;;;;;;2.20;0.50;;;11.30;75.80;;;;;;4065989;29;20056;-77
2024/01/03 12:43:54;;;;;;;2.38;0.63;;;11.40;75.70;;;;;;4062873;29;20104;-78
2024/01/03 12:45:55;;;;;;;3.90;0.70;;;11.70;74.80;;;;;;4065941;29;20044;-77
2024/01/03 12:47:59;;;;;;;1.92;0.52;;;11.80;73.90;;;;;;4065899;29;20066;-77
2024/01/03 12:50:00;;;;;;;2.08;0.60;;;12.30;72.60;;;;;;4065483;29;20469;-78
2024/01/03 12:52:01;;;;;;;3.42;1.00;;;12.30;71.30;;;;;;4065437;29;20052;-77
2024/01/03 12:54:03;;;;;;;3.55;1.58;;;13.10;69.50;;;;;;4066452;29;20091;-77
2024/01/03 12:56:07;;;;;;;3.35;0.70;;;14.00;68.10;;;;;;4067415;29;20506;-76
2024/01/03 12:58:08;;;;;;;3.75;1.00;;;16.00;59.20;;;;;;4069540;29;20111;-77
2024/01/03 13:00:12;;;;;;;2.75;0.90;;;18.70;54.40;;;;;;4069674;29;20100;-77
2024/01/03 13:02:13;;;;;;;2.58;0.80;;;19.40;52.10;;;;;;4069473;29;20056;-77
2024/01/03 13:04:17;;;;;;;4.18;1.02;;;20.10;49.20;;;;;;4066406;29;20067;-77
2024/01/03 13:06:18;;;;;;;3.88;1.40;;;22.20;45.30;;;;;;4068912;29;20454;-78
2024/01/03 13:08:20;;;;;;;3.20;0.70;;;22.10;44.90;;;;;;4069302;29;20044;-78
2024/01/03 13:10:22;;;;;;;4.35;0.90;;;21.40;45.40;;;;;;4065311;29;20103;-77
2024/01/03 13:12:23;;;;;;;3.55;0.80;;;21.60;42.90;;;;;;4065427;29;20056;-77
2024/01/03 13:14:25;;;;;;;2.60;0.80;;;22.40;43.90;;;;;;4067248;29;20111;-77
2024/01/03 13:16:27;;;;;;;3.90;0.82;;;19.20;45.90;;;;;;4068945;29;20549;-77
2024/01/03 13:18:29;;;;;;;4.43;0.85;;;17.60;49.90;;;;;;4068887;29;20054;-77
2024/01/03 13:20:33;;;;;;;2.70;0.57;;;16.20;53.00;;;;;;4069546;29;20048;-77
2024/01/03 13:22:35;;;;;;;4.50;1.00;;;15.40;55.70;;;;;;4069225;29;20123;-77
2024/01/03 13:24:38;;;;;;;4.05;0.85;;;14.60;57.90;;;;;;4068813;29;20055;-77
2024/01/03 13:26:40;;;;;;;3.42;0.90;;;14.00;59.60;;;;;;4067171;29;20087;-78
2024/01/03 13:28:41;;;;;;;3.20;0.73;;;13.80;60.30;;;;;;4059789;29;20060;-78
2024/01/03 13:30:43;;;;;;;5.47;0.90;;;13.60;60.80;;;;;;4068774;29;20048;-78
2024/01/03 13:32:44;;;;;;;3.20;0.90;;;13.70;61.40;;;;;;4068169;29;20066;-78
2024/01/03 13:34:45;;;;;;;5.15;0.90;;;13.50;62.50;;;;;;4068540;29;20092;-78
2024/01/03 13:36:48;;;;;;;4.28;0.90;;;13.20;63.60;;;;;;4069019;29;20499;-79
2024/01/03 13:38:50;;;;;;;5.13;1.00;;;13.10;64.70;;;;;;4068502;29;20054;-79
2024/01/03 13:40:51;;;;;;;3.78;1.00;;;13.00;65.00;;;;;;4068973;29;20127;-79
2024/01/03 13:42:53;;;;;;;5.13;1.05;;;12.70;65.20;;;;;;4068894;29;20048;-79
2024/01/03 13:44:56;;;;;;;3.10;0.95;;;12.50;66.30;;;;;;4066096;29;20159;-78
2024/01/03 13:46:58;;;;;;;4.68;0.90;;;12.40;66.90;;;;;;4068658;29;20493;-79
2024/01/03 13:49:00;;;;;;;4.10;0.90;;;12.40;67.60;;;;;;4067163;29;20060;-78
2024/01/03 13:51:03;;;;;;;3.40;0.90;;;12.20;67.30;;;;;;4068399;29;20056;-78
2024/01/03 13:53:07;;;;;;;3.35;1.25;;;12.00;68.20;;;;;;4069076;29;20056;-80
2024/01/03 13:55:09;;;;;;;3.85;1.08;;;12.10;68.50;;;;;;4069057;29;20056;-80
2024/01/03 13:57:11;;;;;;;4.18;0.90;;;12.00;68.60;;;;;;4068630;29;20048;-79
2024/01/03 13:59:13;;;;;;;4.57;0.95;;;12.00;68.90;;;;;;4068940;29;20084;-80
2024/01/03 14:01:14;;;;;;;4.30;0.80;;;12.00;68.80;;;;;;4068136;29;20052;-80
2024/01/03 14:03:16;;;;;;;3.65;1.00;;;11.90;69.00;;;;;;4068594;29;20498;-79
2024/01/03 14:05:18;;;;;;;4.65;0.95;;;11.90;69.10;;;;;;4068697;29;20108;-79
2024/01/03 14:07:20;;;;;;;3.95;0.90;;;11.80;70.00;;;;;;4067377;29;20056;-79
2024/01/03 14:09:23;;;;;;;4.40;1.10;;;12.00;69.60;;;;;;4067719;29;20048;-79
2024/01/03 14:11:24;;;;;;;4.20;1.10;;;13.40;65.20;;;;;;4068310;29;20052;-80
2024/01/03 14:13:27;;;;;;;2.75;0.85;;;13.00;64.20;;;;;;4067833;29;20541;-80
2024/01/03 14:15:29;;;;;;;6.07;1.70;;;12.60;65.20;;;;;;4066379;29;20056;-80
2024/01/03 14:17:32;;;;;;;7.63;2.50;;;12.20;66.20;;;;;;4067756;29;20107;-79
2024/01/03 14:19:34;;;;;;;3.63;0.95;;;12.10;67.20;;;;;;4067746;29;20072;-79
2024/01/03 14:21:41;;;;;;;3.03;0.65;;;11.90;67.40;;;;;;4068495;29;20060;-79
2024/01/03 14:23:43;;;;;;;3.45;0.80;;;11.80;67.80;;;;;;4068409;29;20048;-79
2024/01/03 14:25:47;;;;;;;3.90;0.88;;;11.70;68.10;;;;;;4067712;29;20055;-79
2024/01/03 14:27:52;;;;;;;5.28;1.35;;;11.70;68.30;;;;;;4068183;29;20044;-79
2024/01/03 14:29:54;;;;;;;4.80;0.90;;;11.70;69.80;;;;;;4067852;29;20058;-79
2024/01/03 14:31:57;;;;;;;3.72;0.73;;;11.60;71.10;;;;;;4068713;29;20107;-79
2024/01/03 14:33:59;;;;;;;2.97;0.73;;;11.50;73.10;;;;;;4067820;29;20083;-80
2024/01/03 14:36:01;;;;;;;4.72;0.85;;;11.40;73.60;;;;;;4065204;29;20048;-80
2024/01/03 14:38:02;;;;;;;3.58;0.73;;;11.40;74.60;;;;;;4067442;29;20056;-79
2024/01/03 14:40:11;;;;;;;7.25;1.50;;;11.30;74.10;;;;;;4067851;29;20055;-80
2024/01/03 14:42:18;;;;;;;2.90;0.75;;;11.30;75.30;;;;;;4067394;29;20052;-79
2024/01/03 14:44:21;;;;;;;4.13;0.90;;;11.20;74.60;;;;;;4067803;29;20072;-79
2024/01/03 14:46:23;;;;;;;2.88;0.90;;;11.20;74.90;;;;;;4068501;29;20052;-79
2024/01/03 14:48:25;;;;;;;4.35;0.88;;;11.20;74.40;;;;;;4067472;29;20053;-79
2024/01/03 14:50:28;;;;;;;4.30;0.90;;;11.10;73.80;;;;;;4067523;29;20051;-80
2024/01/03 14:52:31;;;;;;;4.38;1.00;;;11.10;73.40;;;;;;4067947;29;20804;-79
2024/01/03 14:54:33;;;;;;;4.18;1.00;;;11.10;73.60;;;;;;4068334;29;20054;-79
2024/01/03 14:56:35;;;;;;;4.03;0.80;;;11.10;73.40;;;;;;4068829;29;20515;-79
2024/01/03 14:58:39;;;;;;;5.70;1.52;;;11.10;73.70;;;;;;4068933;29;20104;-79
2024/01/03 15:00:42;;;;;;;4.38;0.80;;;11.10;73.40;;;;;;4068699;29;20059;-79
2024/01/03 15:02:44;;;;;;;3.30;0.77;;;11.10;73.60;;;;;;4069518;29;20493;-79
2024/01/03 15:04:45;;;;;;;6.07;0.95;;;11.10;73.30;;;;;;4070045;29;20052;-79
2024/01/03 15:06:55;;;;;;;3.30;0.98;;;11.10;72.50;;;;;;4069830;29;20516;-80
2024/01/03 15:08:57;;;;;;;5.10;1.02;;;11.10;72.80;;;;;;4069813;29;20055;-79
2024/01/03 15:10:58;;;;;;;3.15;0.80;;;11.10;72.90;;;;;;4069505;29;20047;-79
2024/01/03 15:13:00;;;;;;;4.68;1.50;;;11.10;72.80;;;;;;4069292;29;20457;-79
2024/01/03 15:15:05;;;;;;;3.38;1.00;;;11.10;72.60;;;;;;4069421;29;20092;-79
2024/01/03 15:17:06;;;;;;;3.42;0.80;;;11.00;72.30;;;;;;4072420;29;20052;-80
2024/01/03 15:19:08;;;;;;;3.90;0.75;;;11.10;71.70;;;;;;4069326;29;20056;-79
2024/01/03 15:21:09;;;;;;;3.28;0.80;;;11.10;71.20;;;;;;4068948;29;20044;-78
2024/01/03 15:23:10;;;;;;;1.88;0.60;;;11.10;71.00;;;;;;4069012;29;20055;-78
2024/01/03 15:25:12;;;;;;;2.83;0.70;;;11.10;70.80;;;;;;4069339;29;20044;-79
2024/01/03 15:27:14;;;;;;;3.80;0.80;;;11.10;70.70;;;;;;4068278;29;20107;-79
2024/01/03 15:29:16;;;;;;;4.00;1.00;;;11.10;70.90;;;;;;4068600;29;20044;-79
2024/01/03 15:31:19;;;;;;;4.20;1.75;;;11.10;70.30;;;;;;4069018;29;20119;-79
2024/01/03 15:33:24;;;;;;;3.17;0.70;;;11.10;70.80;;;;;;4045332;29;20059;-79
2024/01/03 15:35:26;;;;;;;2.10;0.70;;;11.10;70.70;;;;;;4067864;29;20059;-79
2024/01/03 15:37:28;;;;;;;2.97;0.60;;;11.10;70.80;;;;;;4069228;29;20048;-79
2024/01/03 15:39:30;;;;;;;2.28;0.60;;;11.00;71.10;;;;;;4068567;29;20056;-79
2024/01/03 15:41:31;;;;;;;1.83;0.68;;;10.90;71.30;;;;;;4067202;29;20048;-79
2024/01/03 15:43:33;;;;;;;2.75;0.70;;;10.80;71.60;;;;;;4068613;29;20541;-79
2024/01/03 15:45:35;;;;;;;2.92;0.73;;;10.70;71.80;;;;;;4068198;29;20044;-76
2024/01/03 15:47:37;;;;;;;2.95;1.08;;;10.70;72.30;;;;;;4068553;29;20047;-78
2024/01/03 15:49:39;;;;;;;2.50;1.02;;;10.60;73.00;;;;;;4068657;29;20397;-78
2024/01/03 15:51:56;;;;;;;2.13;0.52;;;10.50;73.60;;;;;;4068995;29;20056;-78
2024/01/03 15:53:59;;;;;;;1.67;0.55;;;10.40;74.50;;;;;;4068384;29;20131;-78
2024/01/03 15:56:01;;;;;;;2.45;0.60;;;10.40;75.20;;;;;;4068613;29;20482;-78
2024/01/03 15:58:02;;;;;;;2.97;0.70;;;10.40;75.70;;;;;;4068682;29;20221;-78
2024/01/03 16:00:06;;;;;;;3.67;1.10;;;10.30;76.60;;;;;;4068467;29;20139;-81
2024/01/03 16:02:07;;;;;;;1.70;0.45;;;10.20;77.50;;;;;;4068596;29;20063;-78
2024/01/03 16:04:12;;;;;;;3.35;0.82;;;10.10;78.60;;;;;;4068658;29;20056;-80
2024/01/03 16:06:13;;;;;;;5.28;0.90;;;10.10;79.40;;;;;;4068688;29;20067;-79
2024/01/03 16:08:15;;;;;;;2.90;0.75;;;10.10;80.10;;;;;;4068769;29;20474;-78
2024/01/03 16:10:17;;;;;;;3.85;0.90;;;10.00;80.70;;;;;;4068817;29;20485;-82
2024/01/03 16:12:19;;;;;;;5.47;0.82;;;10.00;81.30;;;;;;4068682;29;20067;-85
2024/01/03 16:14:22;;;;;;;4.07;1.00;;;10.00;81.70;;;;;;4068997;29;20059;-77
2024/01/03 16:16:25;;;;;;;5.75;1.30;;;10.00;81.80;;;;;;4068762;29;20413;-82
2024/01/03 16:18:26;;;;;;;4.50;1.35;;;9.90;82.00;;;;;;4068209;29;20048;-81
2024/01/03 16:20:29;;;;;;;4.18;1.20;;;9.90;82.50;;;;;;4056894;29;20067;-79
2024/01/03 16:22:31;;;;;;;5.15;0.93;;;9.90;82.50;;;;;;4066438;29;20139;-78
2024/01/03 16:24:34;;;;;;;3.95;1.00;;;9.90;82.60;;;;;;4069137;29;20468;-83
2024/01/03 16:26:36;;;;;;;3.42;0.93;;;9.80;82.60;;;;;;4068095;29;20048;-78
2024/01/03 16:28:39;;;;;;;4.13;1.13;;;9.80;82.40;;;;;;4069038;29;20052;-80
2024/01/03 16:30:41;;;;;;;4.28;1.30;;;9.80;82.00;;;;;;4068134;29;20062;-82
2024/01/03 16:32:43;;;;;;;5.10;1.10;;;9.80;81.70;;;;;;4068524;29;20120;-81
2024/01/03 16:34:45;;;;;;;4.07;1.10;;;9.80;81.40;;;;;;4069029;29;20115;-78
2024/01/03 16:36:48;;;;;;;3.53;0.80;;;9.80;81.00;;;;;;4068430;29;20048;-77
2024/01/03 16:38:50;;;;;;;3.25;0.93;;;9.80;80.50;;;;;;4071218;29;20059;-78
2024/01/03 16:40:52;;;;;;;3.88;1.08;;;9.90;80.00;;;;;;4084534;29;20087;-78
2024/01/03 16:42:54;;;;;;;4.32;0.98;;;9.90;79.80;;;;;;4072783;29;20127;-78